<?xml version="1.0" encoding="UTF-8" standalone="no" ?>
<gpx xmlns="http://www.topografix.com/GPX/1/1" xmlns:xsi="http://www.w3.org/2001/XMLSchema-instance" xsi:schemaLocation="http://www.topografix.com/GPX/1/1 http://www.topografix.com/GPX/1/1/gpx.xsd" version="1.1" creator="VisuGPX - https://www.visugpx.com">
  <metadata>
    <name>14149037-Les Breviaires_19012022</name>
  </metadata>
  <trk>
    <name><![CDATA[14149037-Les Breviaires_19012022]]></name>
    <extensions>
      <line xmlns="http://www.topografix.com/GPX/gpx_style/0/2">
        <color>0000FF</color>
        <width>4</width>
      </line>
    </extensions>
    <trkseg>
      <trkpt lat="48.70787" lon="1.8135">
        <ele>178</ele>
        <time>2022-01-25T19:56:19Z</time>
      </trkpt>
      <trkpt lat="48.71348" lon="1.8189">
        <ele>178</ele>
        <time>2022-01-25T20:11:06Z</time>
      </trkpt>
      <trkpt lat="48.71135" lon="1.83482">
        <ele>183</ele>
        <time>2022-01-25T20:34:56Z</time>
      </trkpt>
      <trkpt lat="48.7098" lon="1.84062">
        <ele>183</ele>
        <time>2022-01-25T20:44:07Z</time>
      </trkpt>
      <trkpt lat="48.71353" lon="1.84366">
        <ele>169</ele>
        <time>2022-01-25T20:53:32Z</time>
      </trkpt>
      <trkpt lat="48.7173" lon="1.84697">
        <ele>188</ele>
        <time>2022-01-25T21:03:14Z</time>
      </trkpt>
      <trkpt lat="48.71968" lon="1.84105">
        <ele>190</ele>
        <time>2022-01-25T21:13:24Z</time>
      </trkpt>
      <trkpt lat="48.72293" lon="1.83276">
        <ele>179</ele>
        <time>2022-01-25T21:27:33Z</time>
      </trkpt>
      <trkpt lat="48.72376" lon="1.8307">
        <ele>181</ele>
        <time>2022-01-25T21:31:06Z</time>
      </trkpt>
      <trkpt lat="48.72537" lon="1.82658">
        <ele>178</ele>
        <time>2022-01-25T21:38:07Z</time>
      </trkpt>
      <trkpt lat="48.72721" lon="1.82302">
        <ele>182</ele>
        <time>2022-01-25T21:44:45Z</time>
      </trkpt>
      <trkpt lat="48.72911" lon="1.8165">
        <ele>189</ele>
        <time>2022-01-25T21:55:13Z</time>
      </trkpt>
      <trkpt lat="48.72673" lon="1.81032">
        <ele>182</ele>
        <time>2022-01-25T22:05:43Z</time>
      </trkpt>
      <trkpt lat="48.72916" lon="1.8056">
        <ele>181</ele>
        <time>2022-01-25T22:14:30Z</time>
      </trkpt>
      <trkpt lat="48.7316" lon="1.79736">
        <ele>179</ele>
        <time>2022-01-25T22:27:45Z</time>
      </trkpt>
      <trkpt lat="48.73233" lon="1.79466">
        <ele>179</ele>
        <time>2022-01-25T22:32:02Z</time>
      </trkpt>
      <trkpt lat="48.73254" lon="1.79436">
        <ele>180</ele>
        <time>2022-01-25T22:32:40Z</time>
      </trkpt>
      <trkpt lat="48.73264" lon="1.79365">
        <ele>181</ele>
        <time>2022-01-25T22:33:44Z</time>
      </trkpt>
      <trkpt lat="48.73255" lon="1.79277">
        <ele>180</ele>
        <time>2022-01-25T22:35:02Z</time>
      </trkpt>
      <trkpt lat="48.73258" lon="1.79201">
        <ele>178</ele>
        <time>2022-01-25T22:36:09Z</time>
      </trkpt>
      <trkpt lat="48.73313" lon="1.79052">
        <ele>175</ele>
        <time>2022-01-25T22:38:40Z</time>
      </trkpt>
      <trkpt lat="48.73213" lon="1.78832">
        <ele>179</ele>
        <time>2022-01-25T22:42:35Z</time>
      </trkpt>
      <trkpt lat="48.72983" lon="1.78784">
        <ele>183</ele>
        <time>2022-01-25T22:47:45Z</time>
      </trkpt>
      <trkpt lat="48.72442" lon="1.78685">
        <ele>177</ele>
        <time>2022-01-25T22:59:52Z</time>
      </trkpt>
      <trkpt lat="48.72299" lon="1.79102">
        <ele>180</ele>
        <time>2022-01-25T23:06:46Z</time>
      </trkpt>
      <trkpt lat="48.72104" lon="1.79703">
        <ele>183</ele>
        <time>2022-01-25T23:16:35Z</time>
      </trkpt>
      <trkpt lat="48.71949" lon="1.79604">
        <ele>181</ele>
        <time>2022-01-25T23:20:20Z</time>
      </trkpt>
      <trkpt lat="48.71884" lon="1.79853">
        <ele>178</ele>
        <time>2022-01-25T23:24:15Z</time>
      </trkpt>
      <trkpt lat="48.71863" lon="1.79928">
        <ele>181</ele>
        <time>2022-01-25T23:25:27Z</time>
      </trkpt>
      <trkpt lat="48.71822" lon="1.7999">
        <ele>182</ele>
        <time>2022-01-25T23:26:44Z</time>
      </trkpt>
      <trkpt lat="48.7165" lon="1.80259">
        <ele>179</ele>
        <time>2022-01-25T23:32:14Z</time>
      </trkpt>
      <trkpt lat="48.71199" lon="1.80982">
        <ele>175</ele>
        <time>2022-01-25T23:46:50Z</time>
      </trkpt>
      <trkpt lat="48.71137" lon="1.80897">
        <ele>174</ele>
        <time>2022-01-25T23:48:42Z</time>
      </trkpt>
      <trkpt lat="48.71072" lon="1.8102">
        <ele>175</ele>
        <time>2022-01-25T23:51:01Z</time>
      </trkpt>
      <trkpt lat="48.70949" lon="1.81451">
        <ele>177</ele>
        <time>2022-01-25T23:57:54Z</time>
      </trkpt>
      <trkpt lat="48.70814" lon="1.81371">
        <ele>178</ele>
        <time>2022-01-26T00:01:08Z</time>
      </trkpt>
    </trkseg>
  </trk>
</gpx>